createdAt,value
2023-03-26T00:01:39.660Z,27.55
2023-03-26T00:04:08.144Z,34.42
2023-03-26T00:06:39.301Z,21.98
2023-03-26T00:09:10.913Z,25.42
2023-03-26T00:11:38.778Z,23.77
2023-03-26T00:14:06.464Z,25.75
2023-03-26T00:16:34.228Z,19.23
2023-03-26T00:19:02.599Z,29.83
2023-03-26T00:21:31.764Z,22.77
2023-03-26T00:24:06.977Z,19.23
2023-03-26T00:26:38.437Z,16.60
2023-03-26T00:29:08.458Z,30.05
2023-03-26T00:31:39.886Z,35.88
2023-03-26T00:34:08.574Z,28.20
2023-03-26T00:36:36.422Z,29.60
2023-03-26T00:39:05.665Z,27.88
2023-03-26T00:41:37.296Z,31.70
2023-03-26T00:44:05.574Z,25.80
2023-03-26T00:46:33.362Z,25.83
2023-03-26T00:49:03.776Z,22.55
2023-03-26T00:51:33.399Z,30.55
2023-03-26T00:54:01.519Z,30.65
2023-03-26T00:56:29.390Z,27.77
2023-03-26T00:58:57.801Z,23.65
2023-03-26T01:01:29.110Z,25.17
2023-03-26T01:04:17.836Z,25.58
2023-03-26T01:06:46.904Z,20.98
2023-03-26T01:09:19.707Z,17.52
2023-03-26T01:11:49.447Z,14.20
2023-03-26T01:14:26.005Z,23.05
2023-03-26T01:17:01.073Z,20.13
2023-03-26T01:22:12.847Z,16.75
2023-03-26T01:24:41.991Z,15.75
2023-03-26T01:27:21.084Z,24.90
2023-03-26T01:30:03.907Z,16.48
2023-03-26T01:33:00.811Z,19.52
2023-03-26T01:35:54.904Z,13.38
2023-03-26T01:39:00.617Z,17.88
2023-03-26T01:41:51.639Z,17.23
2023-03-26T01:44:55.349Z,20.17
2023-03-26T01:47:23.500Z,31.23
2023-03-26T01:49:51.239Z,21.08
2023-03-26T01:52:25.157Z,23.92
2023-03-26T01:54:56.053Z,21.95
2023-03-26T01:58:18.925Z,15.13
2023-03-26T02:01:05.563Z,22.23
2023-03-26T02:03:45.029Z,17.40
2023-03-26T02:06:31.337Z,16.58
2023-03-26T02:11:35.426Z,21.95
2023-03-26T02:14:06.120Z,22.13
2023-03-26T02:16:34.335Z,18.38
2023-03-26T02:19:02.407Z,19.85
2023-03-26T02:21:34.184Z,30.83
2023-03-26T02:24:04.749Z,24.27
2023-03-26T02:26:37.755Z,21.83
2023-03-26T02:29:09.877Z,25.65
2023-03-26T02:31:39.693Z,14.05
2023-03-26T02:34:07.584Z,23.95
2023-03-26T02:36:38.426Z,18.88
2023-03-26T02:39:10.822Z,19.77
2023-03-26T02:41:39.385Z,18.88
2023-03-26T02:44:12.523Z,14.45
2023-03-26T02:47:06.342Z,21.23
2023-03-26T02:49:52.608Z,16.05
2023-03-26T02:52:30.465Z,20.73
2023-03-26T02:55:00.050Z,15.02
2023-03-26T02:57:28.674Z,18.63
2023-03-26T03:00:25.912Z,13.48
2023-03-26T03:03:13.073Z,22.48
2023-03-26T03:05:59.530Z,14.57
2023-03-26T03:08:41.655Z,20.23
2023-03-26T03:11:24.993Z,18.65
2023-03-26T03:13:54.072Z,19.25
2023-03-26T03:16:27.744Z,19.90
2023-03-26T03:18:58.289Z,17.23
2023-03-26T03:21:36.930Z,15.40
2023-03-26T03:24:05.137Z,18.30
2023-03-26T03:26:37.678Z,14.90
2023-03-26T03:29:23.910Z,16.90
2023-03-26T03:31:52.049Z,20.23
2023-03-26T03:37:06.909Z,16.13
2023-03-26T03:39:44.095Z,16.90
2023-03-26T03:42:17.225Z,18.48
2023-03-26T03:44:45.926Z,20.35
2023-03-26T03:47:33.659Z,15.23
2023-03-26T03:50:01.697Z,14.80
2023-03-26T03:52:30.698Z,20.42
2023-03-26T03:55:00.503Z,18.98
2023-03-26T03:57:48.441Z,13.82
2023-03-26T04:00:22.193Z,14.15
2023-03-26T04:03:06.373Z,17.85
2023-03-26T04:05:34.875Z,17.35
2023-03-26T04:08:02.580Z,18.65
2023-03-26T04:10:43.754Z,13.02
2023-03-26T04:13:17.766Z,18.58
2023-03-26T04:16:04.454Z,16.23
2023-03-26T04:18:32.475Z,13.52
2023-03-26T04:21:07.555Z,13.70
2023-03-26T04:23:35.528Z,11.70
2023-03-26T04:26:35.835Z,13.65
2023-03-26T04:29:12.847Z,13.15
2023-03-26T04:31:43.220Z,11.32
2023-03-26T04:34:24.511Z,18.50
2023-03-26T04:37:39.786Z,11.20
2023-03-26T04:40:19.447Z,17.63
2023-03-26T04:43:12.201Z,11.95
2023-03-26T04:46:04.580Z,20.05
2023-03-26T04:48:38.813Z,10.30
2023-03-26T04:51:10.197Z,13.48
2023-03-26T04:53:38.467Z,12.43
2023-03-26T04:57:01.527Z,17.75
2023-03-26T04:59:51.970Z,15.90
2023-03-26T05:02:20.240Z,13.10
2023-03-26T05:04:57.173Z,16.63
2023-03-26T05:07:28.544Z,10.27
2023-03-26T05:09:58.120Z,9.43
2023-03-26T05:12:44.359Z,14.18
2023-03-26T05:15:20.787Z,12.45
2023-03-26T05:18:04.109Z,11.65
2023-03-26T05:20:46.420Z,17.25
2023-03-26T05:23:14.402Z,20.50
2023-03-26T05:25:54.201Z,10.32
2023-03-26T05:28:26.740Z,14.57
2023-03-26T05:31:08.238Z,14.65
2023-03-26T05:33:39.875Z,10.88
2023-03-26T05:36:15.763Z,14.50
2023-03-26T05:38:49.699Z,15.10
2023-03-26T05:41:36.217Z,12.15
2023-03-26T05:44:04.408Z,11.38
2023-03-26T05:46:32.500Z,11.23
2023-03-26T05:49:01.042Z,13.38
2023-03-26T05:51:34.000Z,11.80
2023-03-26T05:54:32.636Z,10.60
2023-03-26T05:57:33.221Z,8.82
2023-03-26T06:00:19.415Z,11.32
2023-03-26T06:02:48.083Z,11.90
2023-03-26T06:05:39.468Z,11.00
2023-03-26T06:10:40.506Z,15.38
2023-03-26T06:13:08.448Z,5.10
2023-03-26T06:15:39.902Z,5.63
2023-03-26T06:18:27.635Z,4.20
2023-03-26T06:21:13.993Z,7.50
2023-03-26T06:23:49.140Z,5.55
2023-03-26T06:26:35.806Z,3.80
2023-03-26T06:29:15.435Z,3.15
2023-03-26T06:32:19.986Z,6.50
2023-03-26T06:35:20.576Z,7.07
2023-03-26T06:37:48.382Z,8.68
2023-03-26T06:40:16.289Z,7.05
2023-03-26T06:43:13.237Z,7.82
2023-03-26T06:46:10.899Z,5.50
2023-03-26T06:48:40.067Z,5.68
2023-03-26T06:51:26.068Z,4.22
2023-03-26T06:54:09.214Z,3.00
2023-03-26T06:56:49.218Z,5.35
2023-03-26T06:59:44.097Z,5.53
2023-03-26T07:02:30.215Z,3.45
2023-03-26T07:05:17.027Z,8.23
2023-03-26T07:08:04.132Z,4.82
2023-03-26T07:11:09.900Z,5.47
2023-03-26T07:14:16.078Z,3.97
2023-03-26T07:17:10.114Z,2.08
2023-03-26T07:19:37.784Z,4.00
2023-03-26T07:22:06.552Z,2.13
2023-03-26T07:24:57.621Z,5.25
2023-03-26T07:27:56.213Z,5.82
2023-03-26T07:31:24.205Z,7.70
2023-03-26T07:34:33.028Z,3.40
2023-03-26T07:37:52.998Z,5.22
2023-03-26T07:41:14.631Z,6.10
2023-03-26T07:44:43.691Z,7.35
2023-03-26T07:47:42.884Z,3.70
2023-03-26T07:50:37.037Z,8.45
2023-03-26T07:53:21.735Z,3.28
2023-03-26T07:56:34.902Z,4.22
2023-03-26T07:59:59.041Z,4.15
2023-03-26T08:03:28.756Z,5.32
2023-03-26T08:06:39.184Z,4.55
2023-03-26T08:09:28.271Z,2.35
2023-03-26T08:12:19.710Z,8.75
2023-03-26T08:14:53.146Z,5.20
2023-03-26T08:17:32.831Z,4.95
2023-03-26T08:20:32.677Z,4.63
2023-03-26T08:23:33.146Z,5.55
2023-03-26T08:26:25.762Z,6.60
2023-03-26T08:29:16.371Z,7.68
2023-03-26T08:31:46.977Z,5.97
2023-03-26T08:34:15.477Z,5.72
2023-03-26T08:36:43.199Z,6.03
2023-03-26T08:39:11.995Z,10.63
2023-03-26T08:42:09.386Z,5.00
2023-03-26T08:44:47.683Z,11.23
2023-03-26T08:47:52.245Z,8.10
2023-03-26T08:50:51.098Z,6.25
2023-03-26T08:53:59.961Z,3.80
2023-03-26T08:57:15.962Z,9.88
2023-03-26T09:00:20.982Z,9.57
2023-03-26T09:03:30.993Z,3.85
2023-03-26T09:06:41.571Z,9.73
2023-03-26T09:09:46.012Z,7.57
2023-03-26T09:12:42.247Z,7.40
2023-03-26T09:15:24.929Z,6.35
2023-03-26T09:26:37.273Z,4.80
2023-03-26T09:29:33.243Z,4.22
2023-03-26T09:32:54.855Z,5.20
2023-03-26T09:35:58.997Z,2.38
2023-03-26T09:38:44.164Z,4.68
2023-03-26T09:41:31.288Z,6.28
2023-03-26T09:44:25.357Z,2.13
2023-03-26T09:47:11.976Z,8.23
2023-03-26T09:49:46.344Z,3.38
2023-03-26T09:52:19.581Z,9.57
2023-03-26T09:55:21.725Z,11.13
2023-03-26T09:58:13.657Z,17.00
2023-03-26T10:01:25.222Z,11.85
2023-03-26T10:03:58.560Z,16.10
2023-03-26T10:06:35.550Z,10.63
2023-03-26T10:09:18.048Z,7.80
2023-03-26T10:12:39.456Z,5.63
2023-03-26T10:15:32.353Z,8.38
2023-03-26T10:18:27.314Z,5.30
2023-03-26T10:21:30.727Z,5.35
2023-03-26T10:24:26.971Z,6.25
2023-03-26T10:27:38.165Z,2.50
2023-03-26T10:30:33.100Z,4.22
2023-03-26T10:33:20.014Z,3.90
2023-03-26T10:36:14.564Z,2.38
2023-03-26T10:39:36.871Z,2.63
2023-03-26T10:42:32.956Z,2.60
2023-03-26T10:45:57.207Z,1.63
2023-03-26T10:49:00.977Z,2.88
2023-03-26T10:51:51.564Z,2.40
2023-03-26T10:55:00.940Z,2.78
2023-03-26T10:57:54.179Z,2.80
2023-03-26T11:00:30.073Z,3.15
2023-03-26T11:03:24.604Z,4.05
2023-03-26T11:06:19.961Z,3.65
2023-03-26T11:09:37.420Z,2.35
2023-03-26T11:15:18.088Z,2.00
2023-03-26T11:18:12.567Z,2.40
2023-03-26T11:20:56.380Z,4.55
2023-03-26T11:24:26.708Z,3.33
2023-03-26T11:30:49.189Z,4.90
2023-03-26T11:33:26.237Z,6.05
2023-03-26T11:34:36.567Z,5.60
2023-03-26T11:36:10.656Z,7.38
2023-03-26T11:38:44.922Z,5.47
2023-03-26T11:41:23.586Z,5.03
2023-03-26T11:44:28.096Z,8.02
2023-03-26T11:47:08.828Z,7.47
2023-03-26T11:49:37.539Z,8.35
2023-03-26T11:52:07.644Z,8.60
2023-03-26T11:54:35.491Z,7.80
2023-03-26T11:57:18.600Z,7.78
2023-03-26T11:59:57.592Z,9.80
2023-03-26T12:02:39.001Z,7.03
2023-03-26T12:05:26.553Z,7.63
2023-03-26T12:08:03.887Z,10.02
2023-03-26T12:10:40.322Z,8.57
2023-03-26T12:13:35.392Z,5.18
2023-03-26T12:16:20.872Z,9.70
2023-03-26T12:19:00.658Z,4.82
2023-03-26T12:21:28.542Z,4.88
2023-03-26T12:24:05.098Z,3.58
2023-03-26T12:26:48.991Z,4.10
2023-03-26T12:29:19.193Z,5.47
2023-03-26T12:32:09.392Z,6.25
2023-03-26T12:34:38.243Z,4.20
2023-03-26T12:37:15.441Z,7.43
2023-03-26T12:40:09.488Z,6.43
2023-03-26T12:44:49.091Z,6.00
2023-03-26T12:45:40.815Z,9.02
2023-03-26T12:48:13.323Z,5.65
2023-03-26T12:51:08.888Z,13.13
2023-03-26T12:54:03.186Z,6.97
2023-03-26T12:56:47.770Z,5.55
2023-03-26T12:59:49.185Z,7.60
2023-03-26T13:02:47.186Z,5.47
2023-03-26T13:05:50.729Z,6.25
2023-03-26T13:09:19.620Z,6.00
2023-03-26T13:12:10.228Z,6.60
2023-03-26T13:14:52.664Z,5.75
2023-03-26T13:17:44.153Z,3.50
2023-03-26T13:20:48.102Z,7.22
2023-03-26T13:24:12.653Z,7.18
2023-03-26T13:26:49.300Z,6.72
2023-03-26T13:29:35.777Z,5.20
2023-03-26T13:32:20.369Z,7.00
2023-03-26T13:35:24.309Z,8.02
2023-03-26T13:38:29.985Z,4.55
2023-03-26T13:41:00.760Z,6.93
2023-03-26T13:43:49.644Z,12.38
2023-03-26T13:46:41.548Z,7.75
2023-03-26T13:49:42.634Z,8.60
2023-03-26T13:52:22.306Z,6.82
2023-03-26T13:55:19.976Z,7.32
2023-03-26T13:57:59.327Z,7.60
2023-03-26T14:00:47.744Z,10.77
2023-03-26T14:03:35.665Z,12.25
2023-03-26T14:06:24.835Z,9.35
2023-03-26T14:08:59.812Z,6.70
2023-03-26T14:11:57.966Z,8.20
2023-03-26T14:14:41.461Z,11.00
2023-03-26T14:17:28.668Z,10.90
2023-03-26T14:20:29.190Z,8.10
2023-03-26T14:23:46.964Z,12.65
2023-03-26T14:26:26.870Z,15.93
2023-03-26T14:29:12.875Z,12.95
2023-03-26T14:32:14.153Z,16.48
2023-03-26T14:34:58.977Z,16.83
2023-03-26T14:37:59.664Z,17.95
2023-03-26T14:40:28.770Z,19.75
2023-03-26T14:43:31.521Z,20.35
2023-03-26T14:46:52.214Z,25.55
2023-03-26T14:50:06.577Z,18.33
2023-03-26T14:52:50.358Z,15.05
2023-03-26T14:56:15.531Z,20.30
2023-03-26T14:59:22.922Z,22.23
2023-03-26T15:02:22.517Z,13.07
2023-03-26T15:05:37.727Z,15.88
2023-03-26T15:08:33.737Z,18.48
2023-03-26T15:11:20.984Z,23.65
2023-03-26T15:14:21.812Z,15.25
2023-03-26T15:17:40.597Z,24.02
2023-03-26T15:20:33.566Z,20.70
2023-03-26T15:23:31.753Z,18.85
2023-03-26T15:26:08.030Z,18.58
2023-03-26T15:29:12.186Z,14.27
2023-03-26T15:32:26.008Z,24.52
2023-03-26T15:35:24.136Z,15.55
2023-03-26T15:38:09.635Z,15.93
2023-03-26T15:41:24.586Z,25.02
2023-03-26T15:44:23.538Z,23.35
2023-03-26T15:47:19.554Z,26.85
2023-03-26T15:50:06.287Z,23.05
2023-03-26T15:52:49.064Z,19.15
2023-03-26T15:55:16.786Z,13.38
2023-03-26T15:58:01.519Z,20.15
2023-03-26T16:00:47.722Z,16.70
2023-03-26T16:06:28.313Z,17.60
2023-03-26T16:09:31.291Z,24.25
2023-03-26T16:12:27.843Z,13.88
2023-03-26T16:18:16.003Z,17.77
2023-03-26T16:20:53.983Z,10.73
2023-03-26T16:23:47.486Z,16.92
2023-03-26T16:26:44.743Z,14.00
2023-03-26T16:32:26.077Z,19.63
2023-03-26T16:35:02.147Z,15.77
2023-03-26T16:37:36.464Z,14.60
2023-03-26T16:40:22.614Z,14.05
2023-03-26T16:43:03.509Z,10.65
2023-03-26T16:46:08.338Z,12.68
2023-03-26T16:48:56.222Z,9.30
2023-03-26T16:52:16.528Z,14.55
2023-03-26T16:54:57.280Z,12.77
2023-03-26T16:57:38.563Z,9.70
2023-03-26T17:00:31.397Z,10.95
2023-03-26T17:03:28.358Z,7.15
2023-03-26T17:05:59.001Z,17.55
2023-03-26T17:09:11.653Z,14.25
2023-03-26T17:12:12.922Z,12.73
2023-03-26T17:15:00.134Z,8.85
2023-03-26T17:17:36.901Z,18.52
2023-03-26T17:20:33.157Z,14.45
2023-03-26T17:23:29.890Z,7.15
2023-03-26T17:26:33.548Z,13.05
2023-03-26T17:29:21.732Z,17.27
2023-03-26T17:32:12.728Z,11.57
2023-03-26T17:34:49.192Z,16.48
2023-03-26T17:37:16.947Z,10.13
2023-03-26T17:39:46.738Z,17.90
2023-03-26T17:42:35.493Z,8.77
2023-03-26T17:45:15.948Z,13.40
2023-03-26T17:48:08.279Z,18.45
2023-03-26T17:50:50.591Z,10.45
2023-03-26T17:53:33.091Z,10.43
2023-03-26T17:56:06.779Z,13.93
2023-03-26T17:58:42.655Z,12.15
2023-03-26T18:01:18.249Z,18.20
2023-03-26T18:06:52.322Z,7.07
2023-03-26T18:09:42.024Z,18.58
2023-03-26T18:12:53.416Z,12.10
2023-03-26T18:15:31.940Z,6.57
2023-03-26T18:18:22.411Z,14.23
2023-03-26T18:20:52.287Z,8.95
2023-03-26T18:23:37.166Z,9.38
2023-03-26T18:26:32.012Z,10.55
2023-03-26T18:29:36.906Z,7.68
2023-03-26T18:32:10.661Z,14.02
2023-03-26T18:34:49.912Z,9.48
2023-03-26T18:37:25.971Z,12.50
2023-03-26T18:40:11.719Z,11.77
2023-03-26T18:42:58.177Z,10.05
2023-03-26T18:45:39.728Z,10.55
2023-03-26T18:48:28.153Z,11.43
2023-03-26T18:51:07.353Z,10.40
2023-03-26T18:53:41.223Z,7.60
2023-03-26T18:56:35.456Z,6.20
2023-03-26T18:59:12.114Z,8.23
2023-03-26T19:01:42.024Z,10.55
2023-03-26T19:04:13.085Z,12.82
2023-03-26T19:06:43.330Z,14.40
2023-03-26T19:09:28.019Z,10.98
2023-03-26T19:12:09.208Z,9.55
2023-03-26T19:15:13.203Z,12.63
2023-03-26T19:17:46.038Z,13.65
2023-03-26T19:20:23.501Z,11.45
2023-03-26T19:22:51.918Z,5.18
2023-03-26T19:25:46.049Z,12.30
2023-03-26T19:28:38.690Z,9.25
2023-03-26T19:31:15.529Z,7.20
2023-03-26T19:33:46.425Z,7.68
2023-03-26T19:36:17.788Z,9.52
2023-03-26T19:39:10.064Z,7.03
2023-03-26T19:41:45.904Z,8.40
2023-03-26T19:44:29.625Z,5.35
2023-03-26T19:47:14.828Z,11.27
2023-03-26T20:00:49.013Z,7.07
2023-03-26T20:03:23.203Z,13.73
2023-03-26T20:05:51.957Z,8.05
2023-03-26T20:08:26.763Z,11.95
2023-03-26T20:10:56.798Z,6.93
2023-03-26T20:13:24.795Z,13.77
2023-03-26T20:16:11.980Z,11.02
2023-03-26T20:18:39.878Z,16.20
2023-03-26T20:21:14.321Z,8.85
2023-03-26T20:23:43.146Z,11.15
2023-03-26T20:26:16.664Z,8.68
2023-03-26T20:28:47.814Z,10.15
2023-03-26T20:31:25.018Z,12.63
2023-03-26T20:33:54.462Z,6.57
2023-03-26T20:36:34.342Z,10.82
2023-03-26T20:39:06.401Z,5.65
2023-03-26T20:41:35.830Z,11.00
2023-03-26T20:44:05.866Z,9.68
2023-03-26T20:46:33.696Z,9.88
2023-03-26T20:49:01.503Z,6.07
2023-03-26T20:51:29.278Z,7.90
2023-03-26T20:53:56.980Z,10.38
2023-03-26T20:56:24.687Z,9.82
2023-03-26T21:01:29.108Z,8.95
2023-03-26T21:03:57.059Z,10.23
2023-03-26T21:06:24.780Z,9.98
2023-03-26T21:08:52.920Z,7.47
2023-03-26T21:11:50.440Z,11.98
2023-03-26T21:14:29.681Z,5.63
2023-03-26T21:16:58.055Z,9.90
2023-03-26T21:19:26.137Z,8.70
2023-03-26T21:22:19.420Z,7.43
2023-03-26T21:24:59.598Z,13.18
2023-03-26T21:27:48.850Z,9.82
2023-03-26T21:30:17.654Z,12.82
2023-03-26T21:32:46.404Z,4.57
2023-03-26T21:35:16.163Z,9.43
2023-03-26T21:37:48.744Z,11.38
2023-03-26T21:40:18.340Z,7.53
2023-03-26T21:42:49.984Z,8.52
2023-03-26T21:45:19.609Z,11.05
2023-03-26T21:47:48.538Z,10.18
2023-03-26T21:50:21.786Z,7.07
2023-03-26T21:52:51.418Z,8.02
2023-03-26T21:55:24.385Z,7.30
2023-03-26T21:58:22.626Z,7.00
2023-03-26T22:01:10.007Z,11.68
2023-03-26T22:04:07.565Z,5.05
2023-03-26T22:07:16.483Z,7.18
2023-03-26T22:09:45.023Z,10.88
2023-03-26T22:12:13.174Z,7.63
2023-03-26T22:14:40.814Z,8.55
2023-03-26T22:17:08.525Z,7.75
2023-03-26T22:19:36.233Z,7.03
2023-03-26T22:22:03.909Z,8.02
2023-03-26T22:24:32.134Z,5.30
2023-03-26T22:26:59.793Z,4.63
2023-03-26T22:29:27.507Z,12.25
2023-03-26T22:31:55.158Z,7.30
2023-03-26T22:34:23.658Z,6.05
2023-03-26T22:36:52.460Z,6.90
2023-03-26T22:39:20.663Z,9.32
2023-03-26T22:41:48.324Z,5.93
2023-03-26T22:44:20.135Z,11.82
2023-03-26T22:46:52.433Z,14.00
2023-03-26T22:49:20.961Z,10.30
2023-03-26T22:51:50.191Z,6.65
2023-03-26T22:54:18.304Z,6.93
2023-03-26T22:56:46.026Z,8.10
2023-03-26T22:59:13.785Z,6.03
2023-03-26T23:01:41.557Z,5.13
2023-03-26T23:04:09.386Z,7.00
2023-03-26T23:06:37.200Z,10.75
2023-03-26T23:09:07.075Z,14.30
2023-03-26T23:11:35.123Z,5.18
2023-03-26T23:14:02.884Z,9.05
2023-03-26T23:16:31.763Z,5.63
2023-03-26T23:18:59.465Z,2.92
2023-03-26T23:21:27.137Z,2.13
2023-03-26T23:23:54.782Z,6.57
2023-03-26T23:26:22.615Z,6.18
2023-03-26T23:28:53.726Z,10.60
2023-03-26T23:31:21.443Z,5.35
2023-03-26T23:33:50.526Z,7.53
2023-03-26T23:36:20.975Z,6.28
2023-03-26T23:38:49.268Z,4.53
2023-03-26T23:41:23.073Z,8.02
2023-03-26T23:43:54.828Z,6.07
2023-03-26T23:46:30.312Z,7.25
2023-03-26T23:49:04.753Z,3.53
2023-03-26T23:51:33.198Z,6.10
2023-03-26T23:54:01.460Z,6.85
2023-03-26T23:56:32.924Z,3.80
2023-03-26T23:59:00.885Z,5.13
